EW1549 Weather Reports


Display with metric or nautical units.
time (UTC)temp
F
wind
direction
speed
MPH
gust
MPH
rain 1hr
in
rain 24hr
in
rain mn
in
humidity
%
barometer
mb
20220930020101 72 83 9.0 24.0 0.00 0.00 0.00 73 1017.6
20220930014541 72 135 9.0 21.0 0.00 0.00 0.00 73 1017.5
20220930013039 72 23 11.0 16.0 0.00 0.00 0.00 73 1017.7
20220930011531 72 66 13.0 21.0 0.00 0.00 0.00 73 1017.9
20220930010038 72 80 9.0 17.0 0.00 0.00 0.00 72 1017.9
20220930004526 72 91 9.0 22.0 0.00 0.00 0.00 74 1018.2
20220930003040 72 126 8.0 17.0 0.00 0.00 0.00 74 1018.3
20220930001529 72 106 8.0 19.0 0.00 0.00 0.00 74 1018.5
20220930000020 72 54 8.0 22.0 0.00 0.00 0.00 75 1018.8
20220929234514 72 55 7.0 20.0 0.00 0.00 0.00 74 1018.7
20220929233013 72 76 5.0 17.0 0.00 0.00 0.00 74 1018.9
20220929231512 72 123 6.0 19.0 0.00 0.00 0.00 72 1018.8
20220929230018 72 63 11.0 20.0 0.00 0.00 0.00 74 1019.1
20220929224519 72 58 2.0 13.0 0.00 0.00 0.00 72 1018.9
20220929223008 72 140 6.0 12.0 0.00 0.00 0.00 73 1019.0
20220929221508 73 54 9.0 17.0 0.00 0.00 0.00 74 1018.8
20220929220012 72 77 7.0 17.0 0.00 0.00 0.00 73 1018.8
20220929214514 72 78 10.0 17.0 0.00 0.00 0.00 74 1018.9
20220929213018 73 65 8.0 16.0 0.00 0.00 0.00 75 1018.9
20220929211505 73 46 7.0 12.0 0.00 0.00 0.00 74 1018.8
20220929210010 73 67 2.0 14.0 0.00 0.00 0.00 73 1018.8
20220929204509 73 125 8.0 15.0 0.00 0.00 0.00 74 1018.7
20220929203003 73 41 6.0 20.0 0.00 0.00 0.00 75 1018.6
20220929201502 73 51 11.0 22.0 0.00 0.00 0.00 74 1018.6
20220929200002 73 73 8.0 14.0 0.00 0.00 0.00 72 1018.4
20220929194641 73 54 9.0 18.0 0.00 0.00 0.00 74 1018.1
20220929193124 73 75 8.0 16.0 0.00 0.00 0.00 73 1018.1
20220929191555 73 53 6.0 12.0 0.00 0.00 0.00 74 1018.0
20220929190100 73 85 10.0 14.0 0.00 0.00 0.00 73 1018.1
20220929184554 73 76 9.0 15.0 0.00 0.00 0.00 72 1018.0
20220929183053 74 46 5.0 14.0 0.00 0.00 0.00 74 1018.0
20220929181601 74 78 12.0 18.0 0.00 0.00 0.00 74 1017.8
20220929180052 74 59 10.0 17.0 0.00 0.00 0.00 74 1017.9
20220929174559 75 31 7.0 14.0 0.00 0.00 0.00 73 1017.8
20220929173059 75 77 10.0 16.0 0.00 0.00 0.00 72 1017.7
20220929171552 76 41 8.0 13.0 0.00 0.00 0.00 73 1017.6
20220929170046 77 46 6.0 13.0 0.00 0.00 0.00 67 1017.6
20220929164551 79 36 7.0 13.0 0.00 0.00 0.00 65 1017.7
20220929163043 79 32 3.0 14.0 0.00 0.00 0.00 64 1017.5
20220929161547 79 30 7.0 13.0 0.00 0.00 0.00 65 1017.4
20220929160038 79 31 8.0 13.0 0.00 0.00 0.00 64 1017.4
20220929154537 79 46 6.0 15.0 0.00 0.00 0.00 63 1017.5
20220929153037 79 23 11.0 17.0 0.00 0.00 0.00 62 1017.5
20220929151544 82 36 7.0 11.0 0.00 0.00 0.00 57 1017.5
20220929150031 82 179 2.0 6.0 0.00 0.00 0.00 60 1017.6
20220929144530 81 46 7.0 12.0 0.00 0.00 0.00 62 1017.5
20220929143028 81 36 5.0 12.0 0.00 0.00 0.00 59 1017.6
20220929141526 80 356 5.0 17.0 0.00 0.00 0.00 60 1017.6
20220929140024 81 46 6.0 11.0 0.00 0.00 0.00 59 1017.7
20220929134535 82 41 5.0 9.0 0.00 0.00 0.00 60 1017.8
20220929133021 81 164 0.0 8.0 0.00 0.00 0.00 60 1018.2
20220929131532 81 103 6.0 14.0 0.00 0.00 0.00 60 1018.2
20220929130017 80 108 0.0 8.0 0.00 0.00 0.00 59 1018.2
20220929124516 80 31 6.0 13.0 0.00 0.00 0.00 60 1018.6
20220929123047 80 333 2.0 9.0 0.00 0.00 0.00 62 1018.6
20220929121558 80 62 2.0 8.0 0.00 0.00 0.00 61 1018.7
20220929120103 80 36 10.0 14.0 0.00 0.00 0.00 62 1018.8
20220929114539 78 12 4.0 10.0 0.00 0.00 0.00 64 1018.8
20220929113030 78 77 3.0 11.0 0.00 0.00 0.00 66 1018.9
20220929111527 76 82 6.0 16.0 0.00 0.00 0.00 68 1019.2
20220929110033 76 59 5.0 15.0 0.00 0.00 0.00 69 1019.3
20220929104521 75 185 5.0 12.0 0.00 0.00 0.00 71 1019.5
20220929103023 74 118 3.0 8.0 0.00 0.00 0.00 72 1019.5
20220929101524 74 97 6.0 11.0 0.00 0.00 0.00 74 1019.5
20220929100016 74 58 5.0 11.0 0.00 0.00 0.00 75 1019.5
20220929094521 74 329 1.0 4.0 0.00 0.00 0.00 76 1019.4
20220929093013 73 327 0.0 3.0 0.00 0.00 0.00 76 1019.3
20220929091512 73 310 3.0 6.0 0.00 0.00 0.00 76 1019.2
20220929090017 72 238 5.0 9.0 0.00 0.00 0.00 76 1019.1
20220929084513 72 220 1.0 7.0 0.00 0.00 0.00 77 1019.1
20220929083011 72 164 0.0 3.0 0.00 0.00 0.00 76 1019.1
20220929081511 72 61 9.0 17.0 0.00 0.00 0.00 77 1018.9
20220929080009 71 54 4.0 10.0 0.00 0.00 0.00 77 1018.8
20220929074520 72 214 5.0 12.0 0.00 0.00 0.00 76 1018.5
20220929073007 71 187 4.0 10.0 0.00 0.00 0.00 76 1018.4
20220929071510 72 94 0.0 9.0 0.00 0.00 0.00 74 1018.6
20220929070004 72 156 4.0 16.0 0.00 0.00 0.00 73 1018.5
20220929064503 72 110 9.0 18.0 0.00 0.00 0.00 73 1018.7
20220929063000 72 126 7.0 14.0 0.00 0.00 0.00 75 1018.8
20220929061603 71 121 5.0 15.0 0.00 0.00 0.00 78 1018.5
20220929060128 71 195 4.0 14.0 0.00 0.00 0.00 79 1018.3
20220929054604 70 10 1.0 5.0 0.00 0.00 0.00 82 1018.4
20220929053057 70 265 2.0 5.0 0.00 0.00 0.00 83 1018.0
20220929051556 69 224 2.0 6.0 0.00 0.00 0.00 84 1017.8
20220929050055 69 300 0.0 1.0 0.00 0.00 0.00 84 1017.8
20220929044551 69 300 0.0 0.0 0.00 0.00 0.00 83 1017.8
20220929043109 69 300 0.0 0.0 0.00 0.00 0.00 83 1017.8
20220929041549 70 300 0.0 3.0 0.00 0.00 0.00 83 1017.9
20220929040139 70 300 0.0 0.0 0.00 0.00 0.00 82 1017.9
20220929034556 70 300 0.0 8.0 0.00 0.00 0.00 83 1018.1
20220929033054 70 216 0.0 0.0 0.00 0.00 0.00 83 1018.2
20220929031543 70 216 0.0 0.0 0.00 0.00 0.00 83 1018.2
20220929030050 70 216 0.0 0.0 0.00 0.00 0.00 83 1018.2
20220929024546 70 217 0.0 1.0 0.00 0.00 0.00 82 1018.4
20220929023052 71 213 4.0 6.0 0.00 0.00 0.00 82 1018.4
20220929021537 70 202 2.0 5.0 0.00 0.00 0.00 83 1018.5